Time;durP1;ratioP1;P1;durP2;ratioP2;P2;SDS_P1;SDS_P2;PMS_P1;PMS_P2;Temp;Humidity;BMP_temperature;BMP_pressure;BME280_temperature;BME280_humidity;BME280_pressure;Samples;Min_cycle;Max_cycle;Signal;HPM_P1;HPM_P2
2024/01/11 00:02:21;;;;;;;8.93;5.93;;;;;;;;;;5114836;28;20512;-85
2024/01/11 00:04:48;;;;;;;6.07;4.77;;;;;;;;;;5115345;28;20480;-85
2024/01/11 00:07:14;;;;;;;7.17;3.70;;;;;;;;;;5115307;28;20225;-85
2024/01/11 00:09:42;;;;;;;5.40;3.90;;;;;;;;;;5114304;28;20785;-85
2024/01/11 00:12:11;;;;;;;5.50;4.37;;;;;;;;;;5113207;28;20445;-85
2024/01/11 00:14:38;;;;;;;10.23;6.23;;;;;;;;;;5114371;28;20498;-85
2024/01/11 00:17:05;;;;;;;10.37;6.17;;;;;;;;;;5114995;28;20458;-85
2024/01/11 00:19:33;;;;;;;6.50;4.53;;;;;;;;;;5112921;28;20452;-86
2024/01/11 00:22:00;;;;;;;7.17;5.30;;;;;;;;;;5113738;28;20447;-85
2024/01/11 00:24:27;;;;;;;6.57;5.30;;;;;;;;;;5114439;28;20452;-85
2024/01/11 00:26:54;;;;;;;7.77;4.07;;;;;;;;;;5113000;28;20437;-84
2024/01/11 00:29:21;;;;;;;5.77;4.27;;;;;;;;;;5114322;28;20441;-85
2024/01/11 00:31:47;;;;;;;6.17;4.07;;;;;;;;;;5113004;28;20441;-85
2024/01/11 00:34:14;;;;;;;6.03;5.13;;;;;;;;;;5113741;28;20472;-85
2024/01/11 00:36:42;;;;;;;9.20;5.93;;;;;;;;;;5114966;28;20440;-85
2024/01/11 00:39:11;;;;;;;9.37;6.63;;;;;;;;;;5114404;28;20445;-85
2024/01/11 00:41:38;;;;;;;6.43;4.83;;;;;;;;;;5114072;28;20546;-85
2024/01/11 00:44:05;;;;;;;4.37;4.00;;;;;;;;;;5113904;28;20452;-85
2024/01/11 00:46:32;;;;;;;6.87;5.30;;;;;;;;;;5113848;28;20530;-85
2024/01/11 00:48:58;;;;;;;4.50;3.90;;;;;;;;;;5110195;28;21008;-85
2024/01/11 00:51:25;;;;;;;5.30;3.80;;;;;;;;;;5104024;28;20441;-85
2024/01/11 00:53:53;;;;;;;4.03;3.03;;;;;;;;;;5114203;28;20445;-85
2024/01/11 00:56:20;;;;;;;5.20;4.07;;;;;;;;;;5113890;28;20449;-85
2024/01/11 00:58:47;;;;;;;3.67;3.30;;;;;;;;;;5113764;28;20199;-85
2024/01/11 01:01:14;;;;;;;4.73;4.00;;;;;;;;;;5113433;28;20963;-86
2024/01/11 01:03:41;;;;;;;7.43;3.43;;;;;;;;;;5113768;28;20448;-86
2024/01/11 01:06:08;;;;;;;4.87;4.07;;;;;;;;;;5113808;28;20226;-86
2024/01/11 01:08:35;;;;;;;4.40;3.20;;;;;;;;;;5111665;28;20441;-86
2024/01/11 01:11:03;;;;;;;5.93;4.43;;;;;;;;;;5113293;28;20444;-86
2024/01/11 01:13:30;;;;;;;4.53;3.77;;;;;;;;;;5113422;28;20440;-85
2024/01/11 01:15:57;;;;;;;6.17;4.90;;;;;;;;;;5113818;28;20440;-86
2024/01/11 01:18:24;;;;;;;5.63;4.27;;;;;;;;;;5113897;28;20196;-86
2024/01/11 01:20:51;;;;;;;4.70;4.30;;;;;;;;;;5113659;28;20449;-86
2024/01/11 01:23:18;;;;;;;5.00;3.80;;;;;;;;;;5113642;28;20449;-86
2024/01/11 01:25:45;;;;;;;4.93;4.03;;;;;;;;;;5113326;28;20508;-86
2024/01/11 01:28:14;;;;;;;5.83;3.50;;;;;;;;;;5111645;28;20481;-86
2024/01/11 01:30:41;;;;;;;4.50;4.10;;;;;;;;;;5112180;28;20452;-86
2024/01/11 01:33:07;;;;;;;4.90;4.40;;;;;;;;;;5113739;28;20829;-85
2024/01/11 01:35:38;;;;;;;5.47;4.20;;;;;;;;;;5112118;28;20852;-85
2024/01/11 01:38:04;;;;;;;6.57;5.07;;;;;;;;;;5112545;28;20433;-85
2024/01/11 01:40:32;;;;;;;6.23;4.67;;;;;;;;;;5113607;28;20552;-86
2024/01/11 01:43:00;;;;;;;6.03;4.33;;;;;;;;;;5112818;28;20477;-85
2024/01/11 01:45:28;;;;;;;6.30;4.13;;;;;;;;;;5111608;28;21395;-85
2024/01/11 01:47:56;;;;;;;9.40;4.93;;;;;;;;;;5112593;28;20191;-86
2024/01/11 01:50:23;;;;;;;5.77;4.77;;;;;;;;;;5112885;28;20195;-86
2024/01/11 01:52:51;;;;;;;4.10;3.70;;;;;;;;;;5112955;28;20207;-86
2024/01/11 01:55:19;;;;;;;5.83;4.60;;;;;;;;;;5111646;28;20536;-86
2024/01/11 01:57:47;;;;;;;5.30;4.03;;;;;;;;;;5113070;28;20453;-86
2024/01/11 02:00:14;;;;;;;5.53;4.93;;;;;;;;;;5112794;28;20450;-86
2024/01/11 02:02:44;;;;;;;5.43;3.97;;;;;;;;;;5112902;28;20453;-86
2024/01/11 02:05:14;;;;;;;3.80;3.50;;;;;;;;;;5110826;28;20250;-86
2024/01/11 02:07:41;;;;;;;7.00;4.13;;;;;;;;;;5111852;28;20959;-86
2024/01/11 02:10:09;;;;;;;9.17;4.93;;;;;;;;;;5112628;28;20206;-86
2024/01/11 02:12:36;;;;;;;4.90;3.57;;;;;;;;;;5110998;28;20445;-86
2024/01/11 02:15:04;;;;;;;4.30;3.90;;;;;;;;;;5109173;28;20437;-86
2024/01/11 02:17:31;;;;;;;6.20;4.30;;;;;;;;;;5092760;28;20495;-86
2024/01/11 02:19:59;;;;;;;4.53;4.13;;;;;;;;;;5103346;28;20199;-86
2024/01/11 02:22:30;;;;;;;6.83;4.77;;;;;;;;;;5112586;28;20252;-85
2024/01/11 02:24:58;;;;;;;8.70;5.37;;;;;;;;;;5111261;28;20511;-86
2024/01/11 02:27:25;;;;;;;7.37;4.27;;;;;;;;;;5111936;28;20449;-86
2024/01/11 02:29:52;;;;;;;5.47;4.57;;;;;;;;;;5112857;28;20512;-86
2024/01/11 02:32:19;;;;;;;51.73;33.27;;;;;;;;;;5112029;28;20227;-86
2024/01/11 02:34:46;;;;;;;25.70;19.67;;;;;;;;;;5112768;28;20199;-86
2024/01/11 02:37:13;;;;;;;9.20;7.17;;;;;;;;;;5113219;28;20788;-86
2024/01/11 02:39:40;;;;;;;8.00;5.67;;;;;;;;;;5112804;28;20658;-86
2024/01/11 02:42:08;;;;;;;8.53;5.70;;;;;;;;;;5103166;28;20207;-86
2024/01/11 02:44:36;;;;;;;9.50;4.43;;;;;;;;;;5103070;28;20445;-86
2024/01/11 02:47:03;;;;;;;5.23;3.83;;;;;;;;;;5112600;28;20483;-85
2024/01/11 02:49:30;;;;;;;5.07;4.00;;;;;;;;;;5112534;28;20654;-86
2024/01/11 02:51:57;;;;;;;4.60;4.00;;;;;;;;;;5112309;28;20199;-86
2024/01/11 02:54:24;;;;;;;4.73;4.27;;;;;;;;;;5112588;28;20429;-86
2024/01/11 02:56:51;;;;;;;6.90;4.53;;;;;;;;;;5112692;28;20203;-86
2024/01/11 02:59:19;;;;;;;5.27;4.13;;;;;;;;;;5109468;28;20199;-86
2024/01/11 03:01:45;;;;;;;4.87;4.40;;;;;;;;;;5105927;28;20217;-86
2024/01/11 03:04:14;;;;;;;6.53;3.53;;;;;;;;;;5111533;28;20195;-86
2024/01/11 03:06:40;;;;;;;4.60;4.20;;;;;;;;;;5112125;28;20477;-86
2024/01/11 03:09:07;;;;;;;6.10;4.50;;;;;;;;;;5112804;28;20448;-87
2024/01/11 03:11:35;;;;;;;5.27;4.40;;;;;;;;;;5112161;28;20962;-86
2024/01/11 03:14:02;;;;;;;3.93;3.60;;;;;;;;;;5112480;28;20437;-87
2024/01/11 03:16:29;;;;;;;4.70;4.27;;;;;;;;;;5112547;28;20200;-86
2024/01/11 03:18:56;;;;;;;21.63;12.03;;;;;;;;;;5111170;28;20191;-86
2024/01/11 03:21:23;;;;;;;37.23;16.60;;;;;;;;;;5112352;28;20196;-87
2024/01/11 03:23:50;;;;;;;64.07;26.67;;;;;;;;;;5112462;28;20206;-87
2024/01/11 03:26:16;;;;;;;66.60;27.40;;;;;;;;;;5104733;28;20215;-87
2024/01/11 03:28:43;;;;;;;48.13;21.70;;;;;;;;;;5095437;28;20620;-87
2024/01/11 03:31:10;;;;;;;34.73;18.63;;;;;;;;;;5095638;28;20200;-87
2024/01/11 03:33:38;;;;;;;24.20;13.87;;;;;;;;;;5096437;28;20239;-87
2024/01/11 03:36:09;;;;;;;65.90;27.27;;;;;;;;;;5102322;28;20199;-86
2024/01/11 03:38:36;;;;;;;60.47;23.57;;;;;;;;;;5114839;28;20596;-86
2024/01/11 03:41:03;;;;;;;31.00;14.50;;;;;;;;;;5115991;28;20203;-87
2024/01/11 03:43:29;;;;;;;17.07;9.90;;;;;;;;;;5115823;28;20234;-86
2024/01/11 03:45:56;;;;;;;16.10;9.70;;;;;;;;;;5114408;28;20566;-83
2024/01/11 03:48:23;;;;;;;11.30;7.30;;;;;;;;;;5115618;28;20222;-86
2024/01/11 03:50:51;;;;;;;12.07;7.43;;;;;;;;;;5114122;28;20230;-85
2024/01/11 03:53:18;;;;;;;8.80;6.03;;;;;;;;;;5115252;28;20191;-81
2024/01/11 03:55:45;;;;;;;8.67;6.50;;;;;;;;;;5113554;28;20214;-82
2024/01/11 03:58:12;;;;;;;8.63;7.07;;;;;;;;;;5113684;28;20662;-82
2024/01/11 04:00:38;;;;;;;8.80;5.37;;;;;;;;;;5114302;28;20196;-82
2024/01/11 04:03:07;;;;;;;5.97;5.37;;;;;;;;;;5114084;28;20555;-82
2024/01/11 04:05:34;;;;;;;19.43;9.60;;;;;;;;;;5114132;28;20195;-82
2024/01/11 04:08:04;;;;;;;14.97;11.03;;;;;;;;;;5114999;28;20195;-81
2024/01/11 04:10:31;;;;;;;13.30;6.83;;;;;;;;;;5114948;28;20192;-81
2024/01/11 04:12:58;;;;;;;9.60;6.03;;;;;;;;;;5114598;28;20196;-82
2024/01/11 04:15:25;;;;;;;7.93;5.83;;;;;;;;;;5114736;28;20581;-81
2024/01/11 04:17:51;;;;;;;8.90;5.13;;;;;;;;;;5112338;28;20203;-82
2024/01/11 04:20:18;;;;;;;6.80;5.53;;;;;;;;;;5114015;28;20202;-82
2024/01/11 04:22:45;;;;;;;7.03;4.57;;;;;;;;;;5113072;28;20224;-82
2024/01/11 04:25:14;;;;;;;9.83;6.10;;;;;;;;;;5113068;28;20202;-82
2024/01/11 04:27:40;;;;;;;12.80;8.13;;;;;;;;;;5113660;28;20222;-81
2024/01/11 04:30:08;;;;;;;9.23;6.20;;;;;;;;;;5112886;28;20199;-82
2024/01/11 04:32:35;;;;;;;7.50;5.47;;;;;;;;;;5113380;28;20251;-82
2024/01/11 04:35:02;;;;;;;12.17;10.03;;;;;;;;;;5113983;28;20195;-81
2024/01/11 04:37:29;;;;;;;14.07;11.50;;;;;;;;;;5113394;28;20226;-81
2024/01/11 04:39:59;;;;;;;12.77;10.80;;;;;;;;;;5112697;28;20195;-82
2024/01/11 04:42:28;;;;;;;14.83;10.83;;;;;;;;;;5113565;28;20192;-82
2024/01/11 04:44:54;;;;;;;14.40;9.80;;;;;;;;;;5113811;28;20290;-79
2024/01/11 04:47:21;;;;;;;12.03;8.40;;;;;;;;;;5114164;28;20219;-80
2024/01/11 04:49:48;;;;;;;8.57;7.13;;;;;;;;;;5113441;28;20679;-80
2024/01/11 04:52:15;;;;;;;7.57;6.37;;;;;;;;;;5092708;28;20206;-80
2024/01/11 04:54:42;;;;;;;7.53;6.27;;;;;;;;;;5113225;28;20195;-80
2024/01/11 04:57:09;;;;;;;12.57;6.37;;;;;;;;;;5113160;28;20286;-79
2024/01/11 04:59:37;;;;;;;7.50;5.27;;;;;;;;;;5112965;28;20437;-80
2024/01/11 05:02:04;;;;;;;5.80;5.20;;;;;;;;;;5096403;28;20337;-79
2024/01/11 05:04:31;;;;;;;6.57;4.93;;;;;;;;;;5101914;28;20191;-80
2024/01/11 05:06:57;;;;;;;23.50;12.70;;;;;;;;;;5107081;28;20216;-85
2024/01/11 05:09:24;;;;;;;71.23;32.67;;;;;;;;;;5093277;28;20678;-82
2024/01/11 05:11:51;;;;;;;88.33;41.17;;;;;;;;;;5106980;28;20203;-83
2024/01/11 05:14:18;;;;;;;36.53;20.37;;;;;;;;;;5112367;28;20187;-83
2024/01/11 05:16:46;;;;;;;22.80;13.50;;;;;;;;;;5113147;28;20191;-82
2024/01/11 05:19:13;;;;;;;13.00;9.53;;;;;;;;;;5112115;28;20210;-82
2024/01/11 05:21:40;;;;;;;17.07;11.47;;;;;;;;;;5113110;28;20449;-82
2024/01/11 05:24:06;;;;;;;12.97;8.97;;;;;;;;;;5113026;28;20693;-82
2024/01/11 05:26:35;;;;;;;12.33;7.60;;;;;;;;;;5112752;28;20245;-79
2024/01/11 05:29:04;;;;;;;8.40;5.97;;;;;;;;;;5112242;28;20469;-82
2024/01/11 05:31:31;;;;;;;9.00;6.30;;;;;;;;;;5112779;28;20434;-82
2024/01/11 05:33:59;;;;;;;8.40;5.57;;;;;;;;;;5114168;28;20821;-82
2024/01/11 05:36:26;;;;;;;14.23;11.83;;;;;;;;;;5111149;28;20203;-82
2024/01/11 05:38:52;;;;;;;17.20;11.43;;;;;;;;;;5111000;28;20206;-82
2024/01/11 05:41:19;;;;;;;17.87;13.23;;;;;;;;;;5111749;28;20804;-82
2024/01/11 05:43:46;;;;;;;14.43;9.60;;;;;;;;;;5111007;28;20441;-82
2024/01/11 05:46:13;;;;;;;11.73;8.30;;;;;;;;;;5111788;28;20205;-82
2024/01/11 05:48:40;;;;;;;11.13;8.60;;;;;;;;;;5111345;28;20520;-83
2024/01/11 05:51:11;;;;;;;16.70;12.03;;;;;;;;;;5110993;28;20441;-83
2024/01/11 05:53:38;;;;;;;31.13;17.33;;;;;;;;;;5110712;28;20970;-82
2024/01/11 05:56:08;;;;;;;37.07;20.17;;;;;;;;;;5111380;28;20796;-82
2024/01/11 05:58:36;;;;;;;62.73;30.77;;;;;;;;;;5111160;28;20456;-82
2024/01/11 06:01:03;;;;;;;76.93;35.73;;;;;;;;;;5111980;28;20445;-83
2024/01/11 06:03:33;;;;;;;52.50;26.10;;;;;;;;;;5111740;28;20433;-83
2024/01/11 06:06:01;;;;;;;30.80;18.53;;;;;;;;;;5111747;28;20446;-82
2024/01/11 06:08:30;;;;;;;22.90;11.63;;;;;;;;;;5111669;28;20452;-83
2024/01/11 06:10:57;;;;;;;12.80;8.37;;;;;;;;;;5111348;28;20203;-82
2024/01/11 06:13:24;;;;;;;14.70;8.57;;;;;;;;;;5111680;28;20444;-83
2024/01/11 06:15:50;;;;;;;21.03;12.43;;;;;;;;;;5111542;28;20544;-83
2024/01/11 06:18:17;;;;;;;189.63;87.47;;;;;;;;;;5111224;28;20192;-83
2024/01/11 06:20:44;;;;;;;90.63;47.47;;;;;;;;;;5111232;28;20978;-83
2024/01/11 06:23:11;;;;;;;69.23;38.10;;;;;;;;;;5111780;28;20437;-82
2024/01/11 06:25:40;;;;;;;63.27;31.47;;;;;;;;;;5111606;28;20441;-83
2024/01/11 06:28:09;;;;;;;114.17;60.07;;;;;;;;;;5110158;28;20917;-83
2024/01/11 06:30:37;;;;;;;65.17;33.53;;;;;;;;;;5111825;28;20476;-83
2024/01/11 06:33:04;;;;;;;47.87;25.73;;;;;;;;;;5110972;28;20473;-83
2024/01/11 06:35:32;;;;;;;43.00;23.50;;;;;;;;;;5111361;28;20199;-80
2024/01/11 06:37:58;;;;;;;39.13;21.20;;;;;;;;;;5111455;28;20445;-81
2024/01/11 06:40:25;;;;;;;23.47;12.40;;;;;;;;;;5111199;28;20452;-81
2024/01/11 06:42:53;;;;;;;44.10;24.37;;;;;;;;;;5110440;28;20425;-81
2024/01/11 06:45:20;;;;;;;38.83;23.90;;;;;;;;;;5111372;28;20195;-81
2024/01/11 06:47:48;;;;;;;31.50;19.77;;;;;;;;;;5111075;28;20706;-81
2024/01/11 06:50:15;;;;;;;33.57;17.40;;;;;;;;;;5111230;28;20472;-82
2024/01/11 06:52:42;;;;;;;20.70;13.37;;;;;;;;;;5111503;28;20445;-82
2024/01/11 06:55:10;;;;;;;21.23;11.77;;;;;;;;;;5111280;28;20200;-85
2024/01/11 06:57:37;;;;;;;15.57;10.73;;;;;;;;;;5111262;28;20430;-82
2024/01/11 07:00:08;;;;;;;19.43;12.00;;;;;;;;;;5111466;28;20455;-82
2024/01/11 07:02:35;;;;;;;19.07;12.20;;;;;;;;;;5096505;28;20456;-82
2024/01/11 07:05:02;;;;;;;14.50;10.47;;;;;;;;;;5114572;28;20196;-82
2024/01/11 07:07:28;;;;;;;16.97;11.23;;;;;;;;;;5115175;28;20226;-82
2024/01/11 07:09:56;;;;;;;11.50;8.17;;;;;;;;;;5115152;28;20195;-82
2024/01/11 07:12:22;;;;;;;12.27;8.53;;;;;;;;;;5115025;28;20654;-81
2024/01/11 07:14:49;;;;;;;11.53;7.87;;;;;;;;;;5115283;28;20203;-81
2024/01/11 07:29:42;;;;;;;10.13;8.00;;;;;;;;;;5118591;27;21113;-84
2024/01/11 07:32:11;;;;;;;10.47;8.13;;;;;;;;;;5109472;28;20662;-84
2024/01/11 07:34:38;;;;;;;13.20;9.47;;;;;;;;;;5108526;28;20282;-84
2024/01/11 07:37:05;;;;;;;14.73;11.10;;;;;;;;;;5108277;28;20199;-83
2024/01/11 07:39:32;;;;;;;15.10;11.13;;;;;;;;;;5108945;28;20215;-83
2024/01/11 07:41:58;;;;;;;17.60;12.83;;;;;;;;;;5108329;28;20211;-83
2024/01/11 07:44:25;;;;;;;17.33;13.43;;;;;;;;;;5108925;28;20211;-83
2024/01/11 07:46:53;;;;;;;16.77;12.33;;;;;;;;;;5108502;28;20302;-82
2024/01/11 07:49:20;;;;;;;18.33;13.73;;;;;;;;;;5108102;28;20211;-82
2024/01/11 07:51:47;;;;;;;27.13;14.07;;;;;;;;;;5108510;28;20657;-82
2024/01/11 07:54:14;;;;;;;21.10;13.50;;;;;;;;;;5108030;28;20216;-81
2024/01/11 07:56:40;;;;;;;16.93;11.93;;;;;;;;;;5108550;28;20206;-81
2024/01/11 07:59:07;;;;;;;19.73;10.70;;;;;;;;;;5107860;28;20235;-81
2024/01/11 08:01:36;;;;;;;9.60;7.47;;;;;;;;;;5107895;28;20203;-81
2024/01/11 08:04:05;;;;;;;9.40;6.53;;;;;;;;;;5108172;28;20207;-82
2024/01/11 08:06:32;;;;;;;6.13;5.53;;;;;;;;;;5108099;28;20214;-81
2024/01/11 08:08:58;;;;;;;8.13;5.40;;;;;;;;;;5107963;28;20227;-81
2024/01/11 08:11:25;;;;;;;5.80;4.27;;;;;;;;;;5107979;28;20738;-85
2024/01/11 08:13:54;;;;;;;6.13;4.80;;;;;;;;;;5107927;28;20264;-81
2024/01/11 08:16:21;;;;;;;5.53;3.93;;;;;;;;;;5108077;28;20644;-82
2024/01/11 08:18:48;;;;;;;4.93;3.23;;;;;;;;;;5107480;28;20318;-82
2024/01/11 08:21:17;;;;;;;5.33;4.07;;;;;;;;;;5107953;28;20212;-82
2024/01/11 08:23:44;;;;;;;6.30;3.63;;;;;;;;;;5107429;28;20246;-81
2024/01/11 08:26:13;;;;;;;3.03;2.40;;;;;;;;;;5107135;28;20745;-82
2024/01/11 08:28:40;;;;;;;10.77;2.90;;;;;;;;;;5105149;28;20224;-82
2024/01/11 08:31:07;;;;;;;3.63;2.87;;;;;;;;;;5094300;28;20204;-83
2024/01/11 08:33:37;;;;;;;2.77;2.13;;;;;;;;;;5094440;28;20207;-82
2024/01/11 08:36:05;;;;;;;3.43;3.13;;;;;;;;;;5094135;28;20647;-82
2024/01/11 08:38:35;;;;;;;5.03;3.37;;;;;;;;;;5093836;28;20224;-82
2024/01/11 08:41:03;;;;;;;3.83;2.67;;;;;;;;;;5094285;28;20271;-83
2024/01/11 08:43:30;;;;;;;2.63;2.30;;;;;;;;;;5080743;28;20200;-82
2024/01/11 08:45:56;;;;;;;3.87;3.40;;;;;;;;;;5093599;28;20201;-83
2024/01/11 08:48:23;;;;;;;4.57;3.13;;;;;;;;;;5093881;28;20208;-83
2024/01/11 08:50:50;;;;;;;3.53;2.27;;;;;;;;;;5093925;28;20208;-83
2024/01/11 08:53:17;;;;;;;4.07;3.33;;;;;;;;;;5093828;28;20300;-83
2024/01/11 08:55:45;;;;;;;3.10;2.80;;;;;;;;;;5093773;28;20204;-83
2024/01/11 08:58:12;;;;;;;2.93;2.30;;;;;;;;;;5093240;28;20709;-83
2024/01/11 09:00:39;;;;;;;2.90;2.60;;;;;;;;;;5093867;28;20207;-83
2024/01/11 09:03:05;;;;;;;3.20;2.30;;;;;;;;;;5093299;28;20211;-83
2024/01/11 09:05:32;;;;;;;6.97;2.33;;;;;;;;;;5093543;28;20212;-83
2024/01/11 09:07:59;;;;;;;3.70;2.93;;;;;;;;;;5093251;28;20641;-83
2024/01/11 09:10:27;;;;;;;2.33;2.10;;;;;;;;;;5093366;28;20219;-83
2024/01/11 09:12:55;;;;;;;7.23;2.10;;;;;;;;;;5093613;28;20206;-83
2024/01/11 09:15:22;;;;;;;2.57;2.37;;;;;;;;;;5093017;28;20232;-82
2024/01/11 09:17:49;;;;;;;3.33;2.33;;;;;;;;;;5092965;28;20228;-83
2024/01/11 09:20:18;;;;;;;4.83;2.47;;;;;;;;;;5093099;28;20200;-82
2024/01/11 09:22:47;;;;;;;3.57;2.90;;;;;;;;;;5093032;28;20291;-82
2024/01/11 09:25:14;;;;;;;3.47;2.13;;;;;;;;;;5093585;28;20238;-83
2024/01/11 09:27:41;;;;;;;2.30;2.10;;;;;;;;;;5093126;28;20232;-83
2024/01/11 09:30:11;;;;;;;3.17;2.70;;;;;;;;;;5093027;28;20685;-83
2024/01/11 09:32:37;;;;;;;4.40;2.73;;;;;;;;;;5093211;28;20208;-83
2024/01/11 09:35:05;;;;;;;3.67;2.20;;;;;;;;;;5092790;28;20211;-83
2024/01/11 09:37:32;;;;;;;7.43;2.50;;;;;;;;;;5092450;28;20254;-84
2024/01/11 09:40:00;;;;;;;5.70;1.90;;;;;;;;;;5092505;28;20236;-83
2024/01/11 09:42:27;;;;;;;2.77;2.47;;;;;;;;;;5091936;28;20212;-83
2024/01/11 09:44:55;;;;;;;2.07;1.87;;;;;;;;;;5092482;28;20201;-83
2024/01/11 09:47:24;;;;;;;2.73;2.33;;;;;;;;;;5092696;28;20208;-84
2024/01/11 09:49:51;;;;;;;2.77;2.23;;;;;;;;;;5092567;28;20205;-84
2024/01/11 09:52:21;;;;;;;2.27;2.07;;;;;;;;;;5092835;28;20303;-83
2024/01/11 09:54:48;;;;;;;2.30;2.10;;;;;;;;;;5092113;28;20674;-84
2024/01/11 09:57:19;;;;;;;3.60;2.67;;;;;;;;;;5092346;28;20211;-84
2024/01/11 09:59:47;;;;;;;2.73;2.53;;;;;;;;;;5079528;28;20318;-83
2024/01/11 10:02:14;;;;;;;3.57;2.50;;;;;;;;;;5092098;28;20201;-82
2024/01/11 10:04:44;;;;;;;2.93;2.70;;;;;;;;;;5092482;28;20207;-83
2024/01/11 10:07:14;;;;;;;3.40;3.00;;;;;;;;;;5092246;28;20208;-83
2024/01/11 10:09:41;;;;;;;4.37;2.67;;;;;;;;;;5092130;28;20208;-83
2024/01/11 10:12:10;;;;;;;3.43;2.60;;;;;;;;;;5092317;28;20200;-84
2024/01/11 10:14:37;;;;;;;6.07;4.23;;;;;;;;;;5091794;28;20686;-83
2024/01/11 10:17:05;;;;;;;4.23;3.50;;;;;;;;;;5091849;28;20200;-84
2024/01/11 10:19:31;;;;;;;5.60;2.90;;;;;;;;;;5092301;28;20238;-83
2024/01/11 10:22:00;;;;;;;3.00;2.80;;;;;;;;;;5091915;28;20200;-83
2024/01/11 10:24:26;;;;;;;4.47;3.77;;;;;;;;;;5092151;28;20204;-83
2024/01/11 10:26:56;;;;;;;8.03;4.17;;;;;;;;;;5091720;28;20208;-83
2024/01/11 10:29:23;;;;;;;8.23;4.67;;;;;;;;;;5091938;28;20232;-83
2024/01/11 10:31:50;;;;;;;6.13;4.10;;;;;;;;;;5091963;28;20294;-83
2024/01/11 10:34:17;;;;;;;5.37;3.20;;;;;;;;;;5091597;28;20639;-84
2024/01/11 10:36:44;;;;;;;8.40;4.97;;;;;;;;;;5092012;28;20196;-83
2024/01/11 10:39:17;;;;;;;4.03;3.60;;;;;;;;;;5091593;28;20257;-83
2024/01/11 10:41:52;;;;;;;5.43;3.83;;;;;;;;;;5091560;28;20691;-83
2024/01/11 10:44:23;;;;;;;5.37;3.63;;;;;;;;;;5091736;28;20199;-84
2024/01/11 10:46:50;;;;;;;6.33;5.70;;;;;;;;;;5091596;28;20204;-84
2024/01/11 10:49:18;;;;;;;9.43;7.80;;;;;;;;;;5092331;28;20272;-83
2024/01/11 10:51:46;;;;;;;8.87;6.83;;;;;;;;;;5091138;28;20670;-84
2024/01/11 10:54:15;;;;;;;10.07;7.03;;;;;;;;;;5091388;28;20216;-84
2024/01/11 10:56:43;;;;;;;12.23;6.67;;;;;;;;;;5091811;28;20306;-84
2024/01/11 10:59:11;;;;;;;12.80;10.70;;;;;;;;;;5091522;28;20277;-84
2024/01/11 11:01:39;;;;;;;7.50;6.17;;;;;;;;;;5091339;28;20685;-84
2024/01/11 11:04:06;;;;;;;10.83;8.97;;;;;;;;;;5091179;28;20215;-84
2024/01/11 11:06:35;;;;;;;10.00;8.93;;;;;;;;;;5091253;28;20208;-83
2024/01/11 11:09:03;;;;;;;9.80;7.17;;;;;;;;;;5091559;28;20200;-82
2024/01/11 11:11:31;;;;;;;18.50;13.27;;;;;;;;;;5091618;28;20223;-83
2024/01/11 11:14:00;;;;;;;20.80;13.63;;;;;;;;;;5091250;28;20208;-83
2024/01/11 11:16:27;;;;;;;9.93;7.13;;;;;;;;;;5091709;28;20207;-84
2024/01/11 11:18:55;;;;;;;9.83;7.20;;;;;;;;;;5090964;28;20226;-83
2024/01/11 11:21:24;;;;;;;9.13;8.00;;;;;;;;;;5091242;28;20243;-83
2024/01/11 11:23:51;;;;;;;11.67;8.53;;;;;;;;;;5077688;28;20197;-83
2024/01/11 11:26:18;;;;;;;12.37;9.87;;;;;;;;;;5091324;28;20229;-84
2024/01/11 11:28:48;;;;;;;15.90;10.83;;;;;;;;;;5091299;28;20223;-83
2024/01/11 11:31:35;;;;;;;30.77;18.50;;;;;;;;;;5091111;28;20669;-83
2024/01/11 11:34:05;;;;;;;11.50;9.33;;;;;;;;;;5090810;28;20208;-83
2024/01/11 11:36:34;;;;;;;19.37;11.87;;;;;;;;;;5091414;28;20196;-83
2024/01/11 11:39:01;;;;;;;21.70;12.00;;;;;;;;;;5091286;28;20220;-83
2024/01/11 11:41:28;;;;;;;18.93;11.53;;;;;;;;;;5091114;28;20242;-83
2024/01/11 11:44:01;;;;;;;20.33;11.77;;;;;;;;;;5091405;28;20817;-83
2024/01/11 11:46:28;;;;;;;12.20;10.90;;;;;;;;;;5090591;28;20193;-83
2024/01/11 11:48:56;;;;;;;13.10;9.63;;;;;;;;;;5090953;28;20205;-83
2024/01/11 11:51:23;;;;;;;13.70;9.43;;;;;;;;;;5090700;28;20205;-83
2024/01/11 11:53:51;;;;;;;10.17;8.77;;;;;;;;;;5090700;28;20215;-83
2024/01/11 11:56:18;;;;;;;14.20;8.70;;;;;;;;;;5090809;28;20196;-82
2024/01/11 11:58:47;;;;;;;10.77;7.70;;;;;;;;;;5090292;28;20224;-83
2024/01/11 12:01:17;;;;;;;9.30;7.70;;;;;;;;;;5090570;28;20219;-83
2024/01/11 12:03:49;;;;;;;9.07;8.07;;;;;;;;;;5090493;28;20205;-83
2024/01/11 12:06:16;;;;;;;11.23;6.80;;;;;;;;;;5094712;28;20287;-83
2024/01/11 12:08:43;;;;;;;10.47;7.53;;;;;;;;;;5094426;28;20286;-83
2024/01/11 12:11:13;;;;;;;9.50;7.63;;;;;;;;;;5094528;28;20203;-82
2024/01/11 12:13:41;;;;;;;11.97;7.90;;;;;;;;;;5094711;28;20200;-82
2024/01/11 12:16:07;;;;;;;13.43;7.53;;;;;;;;;;5103541;28;20586;-83
2024/01/11 12:18:36;;;;;;;11.23;8.50;;;;;;;;;;5098832;28;20205;-82
2024/01/11 12:21:01;;;;;;;12.27;9.83;;;;;;;;;;5094691;28;20257;-82
2024/01/11 12:23:29;;;;;;;12.23;7.83;;;;;;;;;;5093649;28;20223;-82
2024/01/11 12:25:57;;;;;;;10.63;7.97;;;;;;;;;;5095062;28;20559;-82
2024/01/11 12:28:25;;;;;;;12.53;9.30;;;;;;;;;;5093750;28;20224;-83
2024/01/11 12:30:52;;;;;;;11.93;9.73;;;;;;;;;;5093678;28;20200;-82
2024/01/11 12:33:19;;;;;;;13.37;9.73;;;;;;;;;;5093907;28;20203;-82
2024/01/11 12:35:47;;;;;;;10.00;8.77;;;;;;;;;;5094114;28;20215;-82
2024/01/11 12:38:15;;;;;;;11.10;9.50;;;;;;;;;;5093842;28;20592;-82
2024/01/11 12:40:42;;;;;;;14.03;10.33;;;;;;;;;;5093821;28;20240;-82
2024/01/11 12:43:09;;;;;;;12.70;8.70;;;;;;;;;;5093586;28;20200;-85
2024/01/11 12:45:36;;;;;;;11.70;10.03;;;;;;;;;;5093961;28;20214;-82
2024/01/11 12:48:05;;;;;;;12.03;9.40;;;;;;;;;;5093843;28;20269;-82
2024/01/11 12:50:34;;;;;;;11.50;8.73;;;;;;;;;;5093738;28;20204;-82
2024/01/11 12:53:17;;;;;;;9.20;7.73;;;;;;;;;;5093966;28;20204;-82
2024/01/11 12:55:44;;;;;;;10.73;8.17;;;;;;;;;;5093815;28;20196;-85
2024/01/11 12:58:11;;;;;;;10.57;8.13;;;;;;;;;;5093935;28;20693;-82
2024/01/11 13:00:38;;;;;;;8.80;7.50;;;;;;;;;;5093599;28;20255;-83
2024/01/11 13:03:05;;;;;;;10.20;7.40;;;;;;;;;;5080667;28;20558;-82
2024/01/11 13:05:35;;;;;;;8.63;7.70;;;;;;;;;;5093476;28;20204;-83
2024/01/11 13:08:04;;;;;;;10.93;7.70;;;;;;;;;;5093375;28;20215;-82
2024/01/11 13:10:32;;;;;;;10.10;7.70;;;;;;;;;;5093139;28;20270;-83
2024/01/11 13:13:00;;;;;;;12.37;8.63;;;;;;;;;;5093486;28;20258;-83
2024/01/11 13:15:28;;;;;;;9.80;8.87;;;;;;;;;;5079876;28;20287;-82
2024/01/11 13:17:55;;;;;;;8.37;7.40;;;;;;;;;;5093422;28;20204;-83
2024/01/11 13:20:24;;;;;;;9.07;6.07;;;;;;;;;;5092774;28;20223;-82
2024/01/11 13:22:54;;;;;;;9.80;7.20;;;;;;;;;;5093212;28;20196;-82
2024/01/11 13:25:21;;;;;;;7.57;6.77;;;;;;;;;;5093074;28;20208;-83
2024/01/11 13:27:49;;;;;;;12.27;8.23;;;;;;;;;;5092698;28;20733;-82
2024/01/11 13:30:16;;;;;;;9.67;6.90;;;;;;;;;;5092711;28;20207;-82
2024/01/11 13:32:43;;;;;;;10.10;7.03;;;;;;;;;;5092740;28;20204;-82
2024/01/11 13:35:13;;;;;;;8.00;6.53;;;;;;;;;;5093016;28;20207;-82
2024/01/11 13:37:40;;;;;;;6.87;5.23;;;;;;;;;;5092655;28;20200;-82
2024/01/11 13:40:13;;;;;;;15.60;6.63;;;;;;;;;;5092811;28;20231;-82
2024/01/11 13:42:40;;;;;;;8.60;6.97;;;;;;;;;;5092797;28;20215;-83
2024/01/11 13:45:09;;;;;;;13.00;10.23;;;;;;;;;;5092553;28;20603;-82
2024/01/11 13:47:36;;;;;;;8.07;6.33;;;;;;;;;;5092390;28;20258;-82
2024/01/11 13:50:03;;;;;;;8.50;6.73;;;;;;;;;;5092431;28;20199;-82
2024/01/11 13:52:29;;;;;;;77.63;50.90;;;;;;;;;;5092548;28;20201;-82
2024/01/11 13:54:58;;;;;;;22.40;19.93;;;;;;;;;;5092471;28;20215;-81
2024/01/11 13:57:24;;;;;;;11.57;10.10;;;;;;;;;;5092609;28;20208;-82
2024/01/11 13:59:51;;;;;;;15.77;14.03;;;;;;;;;;5092327;28;20234;-82
2024/01/11 14:02:19;;;;;;;13.77;9.37;;;;;;;;;;5092217;28;20208;-82
2024/01/11 14:04:46;;;;;;;11.43;9.50;;;;;;;;;;5092209;28;20601;-82
2024/01/11 14:07:13;;;;;;;8.07;6.77;;;;;;;;;;5092039;28;20208;-83
2024/01/11 14:09:40;;;;;;;10.33;7.60;;;;;;;;;;5092451;28;20219;-82
2024/01/11 14:12:08;;;;;;;8.93;7.97;;;;;;;;;;5092158;28;20207;-82
2024/01/11 14:14:35;;;;;;;17.30;12.17;;;;;;;;;;5092009;28;20208;-81
2024/01/11 14:17:02;;;;;;;11.10;8.30;;;;;;;;;;5091593;28;20670;-82
2024/01/11 14:19:30;;;;;;;13.37;10.77;;;;;;;;;;5092090;28;20231;-82
2024/01/11 14:21:57;;;;;;;15.37;12.57;;;;;;;;;;5091691;28;20215;-82
2024/01/11 14:24:25;;;;;;;7.93;7.00;;;;;;;;;;5092186;28;20212;-81
2024/01/11 14:26:52;;;;;;;11.13;7.90;;;;;;;;;;5091082;28;20200;-82
2024/01/11 14:29:19;;;;;;;7.83;6.53;;;;;;;;;;5092302;28;20228;-83
2024/01/11 14:31:45;;;;;;;10.03;8.70;;;;;;;;;;5078040;28;20218;-83
2024/01/11 14:34:12;;;;;;;7.83;7.03;;;;;;;;;;5091675;28;20204;-82
2024/01/11 14:36:40;;;;;;;12.57;9.50;;;;;;;;;;5091344;28;20682;-82
2024/01/11 14:39:09;;;;;;;7.03;5.73;;;;;;;;;;5091273;28;20208;-82
2024/01/11 14:41:37;;;;;;;11.57;7.13;;;;;;;;;;5091257;28;20204;-82
2024/01/11 14:44:05;;;;;;;10.30;9.07;;;;;;;;;;5091338;28;20290;-82
2024/01/11 14:46:32;;;;;;;24.37;15.67;;;;;;;;;;5091312;28;20192;-82
2024/01/11 14:49:00;;;;;;;29.00;16.83;;;;;;;;;;5091730;28;20207;-82